createdAt,value
2022-08-05T00:00:20.028Z,101360.22
2022-08-05T00:02:55.240Z,101351.69
2022-08-05T00:06:02.133Z,101353.78
2022-08-05T00:08:34.054Z,101358.41
2022-08-05T00:11:00.846Z,101345.06
2022-08-05T00:13:39.503Z,101333.22
2022-08-05T00:16:10.873Z,101344.03
2022-08-05T00:18:40.631Z,101335.13
2022-08-05T00:21:09.290Z,101336.34
2022-08-05T00:23:46.345Z,101337.38
2022-08-05T00:26:20.664Z,101338.41
2022-08-05T00:28:49.362Z,101335.69
2022-08-05T00:31:16.431Z,101331.22
2022-08-05T00:34:55.262Z,101324.69
2022-08-05T00:37:12.745Z,101328.31
2022-08-05T00:39:57.158Z,101342.03
2022-08-05T00:42:36.657Z,101351.28
2022-08-05T00:45:08.701Z,101345.13
2022-08-05T00:47:57.018Z,101338.97
2022-08-05T00:50:25.501Z,101335.38
2022-08-05T00:52:55.482Z,101330.25
2022-08-05T00:55:29.041Z,101332.16
2022-08-05T00:58:11.191Z,101330.94
2022-08-05T01:00:38.663Z,101333.50
2022-08-05T01:03:07.566Z,101340.88
2022-08-05T01:05:35.219Z,101334.72
2022-08-05T01:08:41.290Z,101325.44
2022-08-05T01:10:56.280Z,101321.00
2022-08-05T01:13:58.335Z,101309.53
2022-08-05T01:16:45.266Z,101318.31
2022-08-05T01:19:56.455Z,101323.31
2022-08-05T01:22:24.415Z,101324.31
2022-08-05T01:25:40.356Z,101339.25
2022-08-05T01:28:17.039Z,101346.63
2022-08-05T01:30:53.818Z,101349.38
2022-08-05T01:33:26.390Z,101367.91
2022-08-05T01:35:55.672Z,101375.28
2022-08-05T01:38:29.308Z,101376.00
2022-08-05T01:41:02.034Z,101382.72
2022-08-05T01:43:33.831Z,101400.72
2022-08-05T01:46:07.350Z,101401.94
2022-08-05T01:48:49.433Z,101408.63
2022-08-05T01:51:18.847Z,101415.31
2022-08-05T01:53:57.273Z,101401.59
2022-08-05T01:58:11.070Z,101398.84
2022-08-05T01:59:20.655Z,101391.31
2022-08-05T02:01:49.588Z,101402.09
2022-08-05T02:04:20.464Z,101422.00
2022-08-05T02:06:47.888Z,101421.81
2022-08-05T02:09:14.814Z,101425.22
2022-08-05T02:11:52.577Z,101431.56
2022-08-05T02:14:47.937Z,101414.09
2022-08-05T02:18:14.508Z,101401.03
2022-08-05T02:20:14.232Z,101385.81
2022-08-05T02:23:03.629Z,101376.56
2022-08-05T02:25:49.418Z,101377.59
2022-08-05T02:28:28.302Z,101372.28
2022-08-05T02:31:00.334Z,101368.69
2022-08-05T02:33:36.264Z,101364.25
2022-08-05T02:36:09.480Z,101363.38
2022-08-05T02:38:37.615Z,101382.75
2022-08-05T02:41:17.315Z,101398.50
2022-08-05T02:44:02.901Z,101397.66
2022-08-05T02:46:53.206Z,101392.16
2022-08-05T02:49:40.579Z,101387.03
2022-08-05T02:52:29.887Z,101380.22
2022-08-05T02:54:58.609Z,101390.50
2022-08-05T02:58:19.948Z,101399.94
2022-08-05T03:00:17.081Z,101409.19
2022-08-05T03:02:45.443Z,101405.78
2022-08-05T03:05:15.113Z,101388.66
2022-08-05T03:08:04.620Z,101377.03
2022-08-05T03:10:29.850Z,101374.47
2022-08-05T03:15:26.618Z,101348.13
2022-08-05T03:17:58.049Z,101345.06
2022-08-05T03:20:26.365Z,101344.56
2022-08-05T03:22:57.725Z,101343.06
2022-08-05T03:25:32.763Z,101345.78
2022-08-05T03:28:14.125Z,101341.34
2022-08-05T03:30:41.295Z,101351.63
2022-08-05T03:33:10.076Z,101360.88
2022-08-05T03:35:40.731Z,101357.28
2022-08-05T03:38:10.955Z,101372.69
2022-08-05T03:40:45.379Z,101378.00
2022-08-05T03:44:09.796Z,101376.28
2022-08-05T03:46:08.271Z,101374.56
2022-08-05T03:48:36.641Z,101366.53
2022-08-05T03:52:38.612Z,101373.91
2022-08-05T03:55:50.017Z,101377.69
2022-08-05T03:57:16.344Z,101393.56
2022-08-05T03:59:54.786Z,101395.28
2022-08-05T04:02:38.487Z,101392.53
2022-08-05T04:05:16.838Z,101395.09
2022-08-05T04:07:51.439Z,101388.78
2022-08-05T04:10:27.916Z,101397.84
2022-08-05T04:12:59.020Z,101387.25
2022-08-05T04:15:27.935Z,101383.66
2022-08-05T04:18:07.034Z,101376.81
2022-08-05T04:20:36.123Z,101378.84
2022-08-05T04:23:03.832Z,101379.69
2022-08-05T04:25:56.966Z,101384.00
2022-08-05T04:28:18.337Z,101384.00
2022-08-05T04:30:45.511Z,101398.56
2022-08-05T04:33:16.886Z,101408.50
2022-08-05T04:36:16.539Z,101415.00
2022-08-05T04:38:51.045Z,101427.13
2022-08-05T04:41:19.141Z,101414.47
2022-08-05T04:43:48.199Z,101412.56
2022-08-05T04:46:28.390Z,101410.69
2022-08-05T04:48:58.011Z,101409.84
2022-08-05T04:51:25.557Z,101414.47
2022-08-05T04:54:01.444Z,101403.69
2022-08-05T04:56:34.374Z,101412.06
2022-08-05T04:59:22.255Z,101420.47
2022-08-05T05:02:08.117Z,101421.50
2022-08-05T05:04:36.049Z,101421.31
2022-08-05T05:07:05.188Z,101409.34
2022-08-05T05:09:37.402Z,101403.19
2022-08-05T05:12:06.202Z,101412.59
2022-08-05T05:14:32.994Z,101417.59
2022-08-05T05:17:03.784Z,101409.88
2022-08-05T05:19:37.171Z,101416.22
2022-08-05T05:22:24.432Z,101411.78
2022-08-05T05:24:56.852Z,101409.88
2022-08-05T05:27:44.479Z,101402.53
2022-08-05T05:30:31.185Z,101407.84
2022-08-05T05:33:14.016Z,101406.13
2022-08-05T05:35:46.824Z,101417.94
2022-08-05T05:38:14.544Z,101411.59
2022-08-05T05:40:49.876Z,101421.53
2022-08-05T05:43:22.350Z,101429.38
2022-08-05T05:46:12.167Z,101435.38
2022-08-05T05:48:43.979Z,101437.75
2022-08-05T05:51:15.501Z,101429.53
2022-08-05T05:53:54.184Z,101426.97
2022-08-05T05:56:32.387Z,101429.03
2022-08-05T05:59:06.412Z,101422.72
2022-08-05T06:01:39.652Z,101421.69
2022-08-05T06:04:12.733Z,101431.78
2022-08-05T06:06:42.388Z,101433.31
2022-08-05T06:09:09.625Z,101434.16
2022-08-05T06:11:59.198Z,101437.75
2022-08-05T06:14:28.996Z,101450.59
2022-08-05T06:16:56.822Z,101449.22
2022-08-05T06:19:32.897Z,101441.72
2022-08-05T06:22:06.322Z,101441.38
2022-08-05T06:24:48.313Z,101449.59
2022-08-05T06:27:17.321Z,101462.94
2022-08-05T06:30:07.432Z,101460.19
2022-08-05T06:32:44.948Z,101460.00
2022-08-05T06:35:21.599Z,101471.84
2022-08-05T06:38:04.303Z,101478.16
2022-08-05T06:40:37.720Z,101468.91
2022-08-05T06:43:57.412Z,101472.34
2022-08-05T06:46:06.695Z,101468.56
2022-08-05T06:48:53.701Z,101459.31
2022-08-05T06:51:28.334Z,101462.22
2022-08-05T06:54:01.937Z,101468.56
2022-08-05T06:56:29.768Z,101472.84
2022-08-05T06:58:57.255Z,101472.66
2022-08-05T07:01:32.487Z,101483.44
2022-08-05T07:04:03.389Z,101484.97
2022-08-05T07:06:30.382Z,101486.00
2022-08-05T07:08:59.208Z,101484.97
2022-08-05T07:11:27.902Z,101490.28
2022-08-05T07:14:20.486Z,101496.78
2022-08-05T07:18:01.761Z,101494.06
2022-08-05T07:22:34.054Z,101502.59
2022-08-05T07:25:23.300Z,101508.59
2022-08-05T07:27:57.065Z,101505.31
2022-08-05T07:30:32.089Z,101513.00
2022-08-05T07:33:04.954Z,101510.94
2022-08-05T07:36:03.790Z,101515.03
2022-08-05T07:38:32.803Z,101522.41
2022-08-05T07:42:09.395Z,101525.66
2022-08-05T07:43:57.930Z,101529.94
2022-08-05T07:46:30.481Z,101515.38
2022-08-05T07:49:03.285Z,101517.75
2022-08-05T07:51:36.856Z,101520.13
2022-08-05T07:54:08.561Z,101522.16
2022-08-05T07:57:00.356Z,101524.41
2022-08-05T07:59:37.996Z,101534.28
2022-08-05T08:02:10.641Z,101539.06
2022-08-05T08:04:46.643Z,101543.53
2022-08-05T08:07:13.902Z,101537.84
2022-08-05T08:09:41.710Z,101545.22
2022-08-05T08:12:19.896Z,101546.09
2022-08-05T08:14:56.241Z,101540.41
2022-08-05T08:17:23.278Z,101546.41
2022-08-05T08:20:22.957Z,101558.38
2022-08-05T08:22:36.846Z,101555.09
2022-08-05T08:25:15.870Z,101560.88
2022-08-05T08:27:45.054Z,101564.63
2022-08-05T08:30:29.782Z,101559.09
2022-08-05T08:33:13.811Z,101569.19
2022-08-05T08:35:53.896Z,101570.03
2022-08-05T08:38:35.913Z,101584.06
2022-08-05T08:41:08.268Z,101589.88
2022-08-05T08:45:23.124Z,101584.72
2022-08-05T08:46:29.290Z,101586.38
2022-08-05T08:49:06.173Z,101590.19
2022-08-05T08:52:04.359Z,101597.31
2022-08-05T08:54:36.562Z,101596.97
2022-08-05T08:57:11.322Z,101601.34
2022-08-05T08:59:38.760Z,101606.50
2022-08-05T09:02:08.994Z,101604.03
2022-08-05T09:04:58.118Z,101606.78
2022-08-05T09:07:28.651Z,101614.00
2022-08-05T09:09:56.276Z,101619.88
2022-08-05T09:12:27.331Z,101613.53
2022-08-05T09:14:59.203Z,101619.88
2022-08-05T09:17:42.459Z,101618.47
2022-08-05T09:20:36.171Z,101626.34
2022-08-05T09:23:19.550Z,101631.47
2022-08-05T09:26:01.718Z,101624.25
2022-08-05T09:28:33.527Z,101631.09
2022-08-05T09:31:43.687Z,101632.22
2022-08-05T09:34:06.278Z,101636.97
2022-08-05T09:36:56.173Z,101636.41
2022-08-05T09:39:41.880Z,101647.03
2022-08-05T09:42:22.977Z,101642.53
2022-08-05T09:44:56.748Z,101647.47
2022-08-05T09:47:36.450Z,101641.78
2022-08-05T09:50:13.743Z,101643.47
2022-08-05T09:52:45.411Z,101652.13
2022-08-05T09:55:56.795Z,101647.72
2022-08-05T09:58:00.300Z,101663.44
2022-08-05T10:00:30.626Z,101663.91
2022-08-05T10:03:09.891Z,101662.47
2022-08-05T10:05:37.006Z,101661.50
2022-08-05T10:08:34.677Z,101663.53
2022-08-05T10:10:54.682Z,101662.88
2022-08-05T10:13:47.772Z,101661.91
2022-08-05T10:16:28.960Z,101682.66
2022-08-05T10:18:57.145Z,101681.06
2022-08-05T10:21:24.190Z,101677.44
2022-08-05T10:23:59.192Z,101680.09
2022-08-05T10:26:32.503Z,101673.69
2022-08-05T10:29:00.646Z,101680.81
2022-08-05T10:32:54.589Z,101675.22
2022-08-05T10:34:14.567Z,101673.94
2022-08-05T10:36:44.097Z,101675.84
2022-08-05T10:40:03.157Z,101674.44
2022-08-05T10:42:32.427Z,101676.59
2022-08-05T10:45:21.016Z,101681.56
2022-08-05T10:48:30.341Z,101683.69
2022-08-05T10:51:22.062Z,101679.22
2022-08-05T10:54:01.957Z,101680.19
2022-08-05T10:56:53.167Z,101680.88
2022-08-05T11:00:03.677Z,101677.72
2022-08-05T11:02:37.550Z,101678.78
2022-08-05T11:05:09.394Z,101691.63
2022-08-05T11:08:01.155Z,101687.84
2022-08-05T11:10:31.748Z,101690.03
2022-08-05T11:13:01.322Z,101695.16
2022-08-05T11:15:59.498Z,101704.75
2022-08-05T11:18:34.493Z,101696.94
2022-08-05T11:21:06.258Z,101706.59
2022-08-05T11:24:05.536Z,101708.41
2022-08-05T11:26:40.325Z,101693.81
2022-08-05T11:29:13.333Z,101698.97
2022-08-05T11:31:57.004Z,101699.84
2022-08-05T11:34:38.415Z,101710.31
2022-08-05T11:37:06.194Z,101701.00
2022-08-05T11:39:55.287Z,101708.91
2022-08-05T11:42:28.470Z,101708.50
2022-08-05T11:45:05.335Z,101715.09
2022-08-05T11:47:48.854Z,101717.44
2022-08-05T11:50:17.859Z,101720.47
2022-08-05T11:52:48.894Z,101732.59
2022-08-05T11:55:20.062Z,101728.13
2022-08-05T11:58:09.840Z,101724.50
2022-08-05T12:00:38.124Z,101728.34
2022-08-05T12:03:29.194Z,101727.72
2022-08-05T12:06:05.783Z,101731.53
2022-08-05T12:08:33.368Z,101743.69
2022-08-05T12:11:05.575Z,101747.72
2022-08-05T12:13:48.933Z,101747.28
2022-08-05T12:16:19.336Z,101746.22
2022-08-05T12:18:49.399Z,101748.81
2022-08-05T12:21:21.211Z,101765.19
2022-08-05T12:24:07.594Z,101767.31
2022-08-05T12:26:43.905Z,101772.34
2022-08-05T12:29:38.717Z,101773.78
2022-08-05T12:32:07.430Z,101771.59
2022-08-05T12:34:38.172Z,101768.38
2022-08-05T12:37:30.108Z,101781.06
2022-08-05T12:40:03.038Z,101790.84
2022-08-05T12:42:31.202Z,101786.81
2022-08-05T12:45:10.088Z,101784.50
2022-08-05T12:47:37.816Z,101782.38
2022-08-05T12:50:16.163Z,101800.69
2022-08-05T12:52:43.243Z,101800.94
2022-08-05T12:55:22.157Z,101796.69
2022-08-05T12:58:49.409Z,101797.97
2022-08-05T13:02:05.889Z,101810.56
2022-08-05T13:03:38.981Z,101817.00
2022-08-05T13:06:10.518Z,101821.25
2022-08-05T13:08:38.870Z,101826.81
2022-08-05T13:11:07.782Z,101833.22
2022-08-05T13:14:05.434Z,101827.47
2022-08-05T13:16:27.836Z,101837.25
2022-08-05T13:18:57.761Z,101828.09
2022-08-05T13:21:28.550Z,101834.03
2022-08-05T13:24:05.697Z,101835.94
2022-08-05T13:26:32.836Z,101843.16
2022-08-05T13:28:59.768Z,101841.06
2022-08-05T13:31:33.879Z,101845.97
2022-08-05T13:34:23.890Z,101845.78
2022-08-05T13:36:53.776Z,101838.97
2022-08-05T13:39:24.564Z,101857.28
2022-08-05T13:42:07.936Z,101847.53
2022-08-05T13:44:45.865Z,101855.59
2022-08-05T13:47:34.764Z,101851.75
2022-08-05T13:50:05.491Z,101856.72
2022-08-05T13:52:35.530Z,101857.59
2022-08-05T13:55:07.747Z,101856.75
2022-08-05T13:57:50.792Z,101861.88
2022-08-05T14:00:27.293Z,101862.28
2022-08-05T14:03:01.141Z,101863.53
2022-08-05T14:05:48.220Z,101863.91
2022-08-05T14:08:20.192Z,101877.06
2022-08-05T14:10:54.230Z,101878.94
2022-08-05T14:13:34.205Z,101871.66
2022-08-05T14:16:06.853Z,101861.66
2022-08-05T14:18:37.968Z,101872.94
2022-08-05T14:22:07.686Z,101875.75
2022-08-05T14:23:54.398Z,101886.63
2022-08-05T14:26:36.784Z,101884.53
2022-08-05T14:29:16.333Z,101887.13
2022-08-05T14:32:03.227Z,101885.00
2022-08-05T14:34:38.655Z,101894.97
2022-08-05T14:37:07.205Z,101899.66
2022-08-05T14:39:50.246Z,101896.53
2022-08-05T14:42:24.987Z,101899.75
2022-08-05T14:44:56.730Z,101895.59
2022-08-05T14:48:04.857Z,101902.72
2022-08-05T14:50:17.406Z,101906.16
2022-08-05T14:52:53.056Z,101899.28
2022-08-05T14:55:38.671Z,101899.03
2022-08-05T14:58:11.656Z,101898.63
2022-08-05T15:00:58.577Z,101906.75
2022-08-05T15:03:27.742Z,101912.53
2022-08-05T15:06:08.330Z,101907.41
2022-08-05T15:09:01.484Z,101906.50
2022-08-05T15:11:50.884Z,101905.88
2022-08-05T15:14:35.115Z,101908.66
2022-08-05T15:17:09.937Z,101914.19
2022-08-05T15:19:55.848Z,101912.03
2022-08-05T15:22:27.197Z,101922.00
2022-08-05T15:24:55.778Z,101917.63
2022-08-05T15:27:22.298Z,101917.78
2022-08-05T15:29:53.015Z,101916.44
2022-08-05T15:32:27.378Z,101914.78
2022-08-05T15:34:57.418Z,101919.66
2022-08-05T15:38:33.252Z,101912.63
2022-08-05T15:41:01.188Z,101922.38
2022-08-05T15:43:12.884Z,101928.47
2022-08-05T15:45:46.656Z,101926.31
2022-08-05T15:48:14.775Z,101925.00
2022-08-05T15:50:43.787Z,101930.53
2022-08-05T15:53:14.403Z,101930.25
2022-08-05T15:56:01.789Z,101929.59
2022-08-05T15:58:29.199Z,101926.84
2022-08-05T16:01:11.819Z,101930.47
2022-08-05T16:03:50.789Z,101924.88
2022-08-05T16:06:19.737Z,101931.38
2022-08-05T16:08:51.098Z,101934.72
2022-08-05T16:11:43.136Z,101934.06
2022-08-05T16:14:10.736Z,101937.41
2022-08-05T16:16:44.498Z,101945.63
2022-08-05T16:19:25.867Z,101944.66
2022-08-05T16:22:02.952Z,101948.84
2022-08-05T16:24:39.831Z,101954.91
2022-08-05T16:27:15.768Z,101956.72
2022-08-05T16:29:47.218Z,101951.53
2022-08-05T16:32:17.321Z,101954.56
2022-08-05T16:34:54.156Z,101953.16
2022-08-05T16:38:15.553Z,101966.47
2022-08-05T16:40:25.163Z,101961.91
2022-08-05T16:42:57.452Z,101975.38
2022-08-05T16:46:05.057Z,101978.03
2022-08-05T16:48:10.663Z,101973.44
2022-08-05T16:50:37.524Z,101990.22
2022-08-05T16:53:12.354Z,101999.63
2022-08-05T16:55:49.253Z,101990.75
2022-08-05T16:58:19.702Z,102002.88
2022-08-05T17:00:48.131Z,101998.13
2022-08-05T17:03:23.091Z,101999.69
2022-08-05T17:05:54.204Z,101999.38
2022-08-05T17:08:36.423Z,102006.47
2022-08-05T17:11:16.811Z,102013.38
2022-08-05T17:13:47.490Z,102007.56
2022-08-05T17:16:33.408Z,102011.72
2022-08-05T17:19:01.243Z,102006.25
2022-08-05T17:21:35.646Z,102017.66
2022-08-05T17:24:18.675Z,102027.38
2022-08-05T17:26:58.517Z,102029.44
2022-08-05T17:29:33.681Z,102025.69
2022-08-05T17:32:11.507Z,102026.91
2022-08-05T17:34:43.368Z,102035.34
2022-08-05T17:37:39.779Z,102026.41
2022-08-05T17:39:57.485Z,102028.31
2022-08-05T17:42:32.177Z,102036.91
2022-08-05T17:45:00.350Z,102039.50
2022-08-05T17:47:37.356Z,102052.75
2022-08-05T17:50:11.014Z,102057.41
2022-08-05T17:52:53.115Z,102060.50
2022-08-05T17:55:27.340Z,102061.91
2022-08-05T17:58:02.097Z,102065.13
2022-08-05T18:00:29.746Z,102080.97
2022-08-05T18:02:58.311Z,102069.28
2022-08-05T18:05:28.185Z,102080.31
2022-08-05T18:08:01.863Z,102077.34
2022-08-05T18:10:28.550Z,102088.88
2022-08-05T18:13:00.343Z,102085.97
2022-08-05T18:15:31.097Z,102096.94
2022-08-05T18:18:05.546Z,102097.97
2022-08-05T18:20:37.939Z,102103.63
2022-08-05T18:23:12.334Z,102103.94
2022-08-05T18:25:45.114Z,102113.88
2022-08-05T18:28:16.177Z,102127.44
2022-08-05T18:30:51.179Z,102125.34
2022-08-05T18:33:24.166Z,102124.97
2022-08-05T18:36:03.339Z,102125.28
2022-08-05T18:38:35.070Z,102139.00
2022-08-05T18:41:55.478Z,102140.53
2022-08-05T18:43:53.465Z,102142.72
2022-08-05T18:46:20.848Z,102137.56
2022-08-05T18:48:54.097Z,102146.13
2022-08-05T18:52:05.153Z,102146.47
2022-08-05T18:54:31.911Z,102154.34
2022-08-05T18:57:02.022Z,102160.16
2022-08-05T18:59:42.778Z,102151.41
2022-08-05T19:02:38.036Z,102159.22
2022-08-05T19:06:06.312Z,102160.25
2022-08-05T19:07:57.569Z,102163.16
2022-08-05T19:10:28.480Z,102170.00
2022-08-05T19:12:57.664Z,102171.50
2022-08-05T19:15:57.935Z,102166.97
2022-08-05T19:18:20.624Z,102169.97
2022-08-05T19:20:52.113Z,102174.38
2022-08-05T19:23:22.523Z,102184.25
2022-08-05T19:26:08.490Z,102193.13
2022-08-05T19:28:42.123Z,102197.50
2022-08-05T19:31:13.522Z,102201.03
2022-08-05T19:33:48.159Z,102207.13
2022-08-05T19:36:23.006Z,102202.13
2022-08-05T19:38:49.605Z,102214.41
2022-08-05T19:41:16.178Z,102217.63
2022-08-05T19:44:06.102Z,102219.09
2022-08-05T19:46:33.987Z,102219.53
2022-08-05T19:49:03.136Z,102222.91
2022-08-05T19:52:04.497Z,102231.03
2022-08-05T19:54:27.225Z,102231.09
2022-08-05T19:56:59.653Z,102232.88
2022-08-05T19:59:55.935Z,102229.34
2022-08-05T20:02:20.672Z,102239.44
2022-08-05T20:04:48.643Z,102238.16
2022-08-05T20:07:15.652Z,102237.75
2022-08-05T20:10:11.463Z,102239.78
2022-08-05T20:12:39.962Z,102245.72
2022-08-05T20:15:51.779Z,102243.69
2022-08-05T20:18:33.424Z,102248.03
2022-08-05T20:21:04.709Z,102248.78
2022-08-05T20:23:50.895Z,102253.84
2022-08-05T20:26:21.382Z,102254.44
2022-08-05T20:28:53.893Z,102263.94
2022-08-05T20:31:37.291Z,102264.38
2022-08-05T20:34:12.914Z,102275.75
2022-08-05T20:36:43.298Z,102272.44
2022-08-05T20:39:12.816Z,102276.44
2022-08-05T20:41:44.549Z,102275.88
2022-08-05T20:44:29.880Z,102282.78
2022-08-05T20:47:03.226Z,102282.38
2022-08-05T20:49:37.776Z,102283.94
2022-08-05T20:52:06.993Z,102284.66
2022-08-05T20:54:59.822Z,102286.34
2022-08-05T20:57:43.230Z,102292.53
2022-08-05T21:00:40.709Z,102294.69
2022-08-05T21:03:08.902Z,102293.38
2022-08-05T21:05:48.098Z,102298.13
2022-08-05T21:08:26.579Z,102300.28
2022-08-05T21:11:09.300Z,102302.56
2022-08-05T21:13:47.869Z,102305.59
2022-08-05T21:16:29.728Z,102304.00
2022-08-05T21:18:59.755Z,102306.88
2022-08-05T21:21:26.714Z,102306.16
2022-08-05T21:24:09.795Z,102302.53
2022-08-05T21:26:39.736Z,102311.63
2022-08-05T21:29:10.072Z,102313.44
2022-08-05T21:31:41.442Z,102308.13
2022-08-05T21:34:08.672Z,102312.88
2022-08-05T21:36:37.511Z,102312.13
2022-08-05T21:39:04.121Z,102315.00
2022-08-05T21:41:34.310Z,102319.88
2022-08-05T21:44:04.939Z,102328.34
2022-08-05T21:46:34.627Z,102329.78
2022-08-05T21:49:07.072Z,102332.06
2022-08-05T21:52:23.004Z,102326.28
2022-08-05T21:54:27.959Z,102331.44
2022-08-05T21:57:29.902Z,102337.41
2022-08-05T22:00:02.003Z,102343.25
2022-08-05T22:02:39.488Z,102344.81
2022-08-05T22:05:09.801Z,102333.72
2022-08-05T22:07:40.261Z,102343.44
2022-08-05T22:10:25.588Z,102341.06
2022-08-05T22:12:58.770Z,102349.94
2022-08-05T22:15:56.516Z,102347.59
2022-08-05T22:18:13.103Z,102343.41
2022-08-05T22:20:41.778Z,102350.84
2022-08-05T22:24:02.625Z,102346.53
2022-08-05T22:26:37.118Z,102350.53
2022-08-05T22:29:05.212Z,102350.06
2022-08-05T22:31:31.797Z,102364.22
2022-08-05T22:34:20.208Z,102366.72
2022-08-05T22:36:55.471Z,102373.56
2022-08-05T22:39:22.613Z,102364.16
2022-08-05T22:42:10.686Z,102366.78
2022-08-05T22:44:35.781Z,102370.91
2022-08-05T22:47:05.771Z,102372.00
2022-08-05T22:50:20.258Z,102379.56
2022-08-05T22:52:30.554Z,102379.19
2022-08-05T22:55:01.345Z,102371.78
2022-08-05T22:57:34.069Z,102376.88
2022-08-05T23:00:06.004Z,102381.72
2022-08-05T23:02:35.604Z,102380.00
2022-08-05T23:05:15.710Z,102378.25
2022-08-05T23:07:45.024Z,102382.84
2022-08-05T23:10:12.341Z,102388.41
2022-08-05T23:12:39.000Z,102387.78
2022-08-05T23:15:08.790Z,102388.19
2022-08-05T23:17:37.504Z,102394.13
2022-08-05T23:20:16.844Z,102391.78
2022-08-05T23:22:47.618Z,102397.47
2022-08-05T23:25:50.963Z,102395.25
2022-08-05T23:28:11.166Z,102399.53
2022-08-05T23:30:39.825Z,102400.25
2022-08-05T23:33:22.511Z,102404.44
2022-08-05T23:36:00.137Z,102398.38
2022-08-05T23:38:26.769Z,102410.25
2022-08-05T23:40:53.569Z,102406.91
2022-08-05T23:43:37.225Z,102410.00
2022-08-05T23:46:20.315Z,102421.22
2022-08-05T23:49:00.817Z,102415.41
2022-08-05T23:51:52.920Z,102418.84
2022-08-05T23:54:30.127Z,102416.84
2022-08-05T23:57:03.939Z,102420.41
